createdAt,value
2023-01-30T00:03:34.518Z,99698.47
2023-01-30T00:06:22.332Z,99714.41
2023-01-30T00:09:14.318Z,99702.06
2023-01-30T00:12:01.376Z,99707.81
2023-01-30T00:14:48.459Z,99692.09
2023-01-30T00:17:35.635Z,99697.47
2023-01-30T00:20:22.807Z,99686.97
2023-01-30T00:23:09.975Z,99699.53
2023-01-30T00:25:57.245Z,99675.88
2023-01-30T00:28:44.309Z,99664.81
2023-01-30T00:31:31.527Z,99670.50
2023-01-30T00:34:18.723Z,99657.03
2023-01-30T00:40:12.949Z,99652.63
2023-01-30T00:43:35.301Z,99646.97
2023-01-30T00:46:59.369Z,99643.41
2023-01-30T00:49:46.488Z,99631.06
2023-01-30T00:52:33.612Z,99637.34
2023-01-30T00:55:20.788Z,99617.00
2023-01-30T00:58:08.106Z,99621.22
2023-01-30T01:00:56.308Z,99616.28
2023-01-30T01:03:43.489Z,99625.13
2023-01-30T01:06:30.594Z,99620.63
2023-01-30T01:09:17.753Z,99611.75
2023-01-30T01:12:05.726Z,99604.56
2023-01-30T01:14:52.791Z,99601.69
2023-01-30T01:17:41.615Z,99603.41
2023-01-30T01:20:28.931Z,99587.09
2023-01-30T01:23:16.171Z,99588.34
2023-01-30T01:26:03.675Z,99595.91
2023-01-30T01:28:55.257Z,99588.09
2023-01-30T01:31:43.798Z,99585.66
2023-01-30T01:34:30.872Z,99583.44
2023-01-30T01:37:17.970Z,99575.13
2023-01-30T01:40:24.539Z,99570.22
2023-01-30T01:43:19.842Z,99561.22
2023-01-30T01:46:17.403Z,99567.50
2023-01-30T01:49:13.798Z,99567.13
2023-01-30T01:52:09.550Z,99566.34
2023-01-30T01:55:02.367Z,99560.84
2023-01-30T01:58:10.856Z,99541.31
2023-01-30T02:01:00.114Z,99538.31
2023-01-30T02:03:53.050Z,99533.25
2023-01-30T02:06:42.741Z,99527.97
2023-01-30T02:09:29.885Z,99529.75
2023-01-30T02:12:17.006Z,99522.84
2023-01-30T02:15:05.166Z,99533.06
2023-01-30T02:17:52.281Z,99526.84
2023-01-30T02:21:17.004Z,99512.88
2023-01-30T02:24:13.242Z,99507.75
2023-01-30T02:27:00.270Z,99509.00
2023-01-30T02:29:50.204Z,99509.00
2023-01-30T02:32:55.191Z,99510.25
2023-01-30T02:36:03.692Z,99485.16
2023-01-30T02:39:10.696Z,99469.38
2023-01-30T02:42:19.811Z,99483.53
2023-01-30T02:45:33.067Z,99483.53
2023-01-30T02:48:33.573Z,99470.53
2023-01-30T02:51:24.380Z,99478.63
2023-01-30T02:54:13.057Z,99476.53
2023-01-30T02:57:00.991Z,99478.31
2023-01-30T02:59:51.133Z,99487.09
2023-01-30T03:02:38.279Z,99476.75
2023-01-30T03:05:52.182Z,99472.94
2023-01-30T03:09:02.325Z,99458.66
2023-01-30T03:12:11.430Z,99458.72
2023-01-30T03:15:12.264Z,99471.84
2023-01-30T03:17:59.700Z,99453.69
2023-01-30T03:20:47.137Z,99476.28
2023-01-30T03:23:34.499Z,99468.00
2023-01-30T03:26:29.993Z,99451.66
2023-01-30T03:29:17.188Z,99462.31
2023-01-30T03:32:04.701Z,99465.59
2023-01-30T03:34:51.724Z,99453.69
2023-01-30T03:37:39.219Z,99461.78
2023-01-30T03:40:26.539Z,99451.59
2023-01-30T03:43:13.671Z,99468.94
2023-01-30T03:46:00.762Z,99452.06
2023-01-30T03:48:47.851Z,99455.66
2023-01-30T03:51:35.173Z,99423.34
2023-01-30T03:54:22.506Z,99415.25
2023-01-30T03:57:09.623Z,99419.13
2023-01-30T03:59:56.754Z,99416.72
2023-01-30T04:02:44.203Z,99424.97
2023-01-30T04:05:31.475Z,99427.81
2023-01-30T04:08:18.557Z,99433.75
2023-01-30T04:11:05.732Z,99426.13
2023-01-30T04:13:52.772Z,99432.25
2023-01-30T04:16:39.893Z,99423.88
2023-01-30T04:19:27.166Z,99448.81
2023-01-30T04:22:14.263Z,99432.31
2023-01-30T04:25:01.866Z,99422.25
2023-01-30T04:27:49.008Z,99429.47
2023-01-30T04:30:36.104Z,99424.56
2023-01-30T04:33:23.486Z,99449.81
2023-01-30T04:36:11.027Z,99427.44
2023-01-30T04:38:58.435Z,99416.81
2023-01-30T04:41:45.575Z,99426.22
2023-01-30T04:44:32.701Z,99405.78
2023-01-30T04:47:19.861Z,99390.31
2023-01-30T04:50:07.501Z,99394.69
2023-01-30T04:52:54.543Z,99404.47
2023-01-30T04:55:41.679Z,99406.00
2023-01-30T04:58:28.716Z,99348.03
2023-01-30T05:01:21.742Z,99376.81
2023-01-30T05:04:09.099Z,99369.91
2023-01-30T05:06:56.188Z,99361.63
2023-01-30T05:09:43.261Z,99364.56
2023-01-30T05:12:30.951Z,99366.59
2023-01-30T05:15:18.264Z,99370.22
2023-01-30T05:18:05.582Z,99365.31
2023-01-30T05:20:52.744Z,99342.28
2023-01-30T05:23:40.035Z,99348.41
2023-01-30T05:26:27.238Z,99371.38
2023-01-30T05:29:14.370Z,99375.56
2023-01-30T05:32:01.565Z,99378.78
2023-01-30T05:34:49.918Z,99381.47
2023-01-30T05:37:37.990Z,99392.97
2023-01-30T05:40:25.108Z,99382.72
2023-01-30T05:43:12.161Z,99386.09
2023-01-30T05:46:00.518Z,99388.00
2023-01-30T05:48:48.028Z,99368.69
2023-01-30T05:51:35.090Z,99364.41
2023-01-30T05:54:22.148Z,99398.88
2023-01-30T05:57:09.237Z,99405.09
2023-01-30T05:59:56.328Z,99406.84
2023-01-30T06:02:43.488Z,99398.31
2023-01-30T06:05:30.690Z,99406.25
2023-01-30T06:08:17.796Z,99379.09
2023-01-30T06:11:08.275Z,99371.53
2023-01-30T06:13:55.358Z,99353.00
2023-01-30T06:16:42.484Z,99374.94
2023-01-30T06:19:29.679Z,99357.41
2023-01-30T06:22:16.737Z,99340.69
2023-01-30T06:25:04.186Z,99297.34
2023-01-30T06:27:51.237Z,99291.47
2023-01-30T06:30:38.394Z,99294.13
2023-01-30T06:33:25.673Z,99291.81
2023-01-30T06:36:13.278Z,99311.97
2023-01-30T06:39:00.401Z,99301.81
2023-01-30T06:41:50.165Z,99316.00
2023-01-30T06:44:37.216Z,99314.28
2023-01-30T06:47:25.208Z,99284.75
2023-01-30T06:50:12.901Z,99299.63
2023-01-30T06:53:03.131Z,99310.56
2023-01-30T06:55:50.064Z,99324.19
2023-01-30T06:58:37.171Z,99281.78
2023-01-30T07:01:24.227Z,99293.56
2023-01-30T07:04:11.710Z,99256.53
2023-01-30T07:06:58.791Z,99277.34
2023-01-30T07:09:47.700Z,99249.25
2023-01-30T07:12:38.633Z,99305.38
2023-01-30T07:15:26.368Z,99268.06
2023-01-30T07:18:13.648Z,99248.75
2023-01-30T07:21:00.829Z,99250.53
2023-01-30T07:23:47.883Z,99309.81
2023-01-30T07:26:35.328Z,99304.84
2023-01-30T07:29:22.744Z,99315.13
2023-01-30T07:32:16.296Z,99269.09
2023-01-30T07:35:06.010Z,99245.72
2023-01-30T07:37:53.500Z,99303.47
2023-01-30T07:40:40.534Z,99244.50
2023-01-30T07:43:27.747Z,99251.47
2023-01-30T07:46:14.888Z,99287.34
2023-01-30T07:49:06.609Z,99279.28
2023-01-30T07:51:53.766Z,99255.72
2023-01-30T07:54:40.924Z,99257.78
2023-01-30T07:57:28.084Z,99291.63
2023-01-30T08:00:16.844Z,99251.88
2023-01-30T08:03:04.169Z,99221.09
2023-01-30T08:05:51.333Z,99278.69
2023-01-30T08:08:38.431Z,99281.09
2023-01-30T08:11:25.538Z,99277.59
2023-01-30T08:14:12.656Z,99267.88
2023-01-30T08:16:59.747Z,99266.28
2023-01-30T08:19:46.855Z,99267.13
2023-01-30T08:22:33.946Z,99260.31
2023-01-30T08:25:23.243Z,99265.44
2023-01-30T08:28:10.375Z,99247.03
2023-01-30T08:30:58.240Z,99259.63
2023-01-30T08:33:45.445Z,99261.94
2023-01-30T08:36:32.687Z,99276.41
2023-01-30T08:39:20.225Z,99276.56
2023-01-30T08:42:07.352Z,99279.75
2023-01-30T08:44:55.491Z,99251.25
2023-01-30T08:47:42.693Z,99259.44
2023-01-30T08:50:30.145Z,99251.59
2023-01-30T08:53:17.377Z,99245.97
2023-01-30T08:56:04.799Z,99262.25
2023-01-30T08:58:51.877Z,99249.97
2023-01-30T09:01:39.049Z,99251.81
2023-01-30T09:04:26.599Z,99253.13
2023-01-30T09:07:13.870Z,99253.06
2023-01-30T09:10:00.971Z,99233.09
2023-01-30T09:12:48.162Z,99244.44
2023-01-30T09:15:35.246Z,99247.84
2023-01-30T09:18:22.516Z,99246.41
2023-01-30T09:21:11.393Z,99256.28
2023-01-30T09:23:58.482Z,99253.47
2023-01-30T09:26:46.183Z,99257.78
2023-01-30T09:29:33.376Z,99252.50
2023-01-30T09:32:20.551Z,99242.41
2023-01-30T09:35:08.673Z,99246.47
2023-01-30T09:37:55.777Z,99243.88
2023-01-30T09:40:49.683Z,99243.63
2023-01-30T09:43:54.848Z,99240.50
2023-01-30T09:46:55.696Z,99227.19
2023-01-30T09:50:19.818Z,99227.53
2023-01-30T09:53:22.736Z,99224.22
2023-01-30T09:56:09.902Z,99207.03
2023-01-30T09:59:04.860Z,99186.81
2023-01-30T10:01:59.979Z,99196.19
2023-01-30T10:05:00.492Z,99183.16
2023-01-30T10:08:11.501Z,99189.09
2023-01-30T10:11:21.352Z,99183.50
2023-01-30T10:14:15.564Z,99165.94
2023-01-30T10:17:35.449Z,99163.25
2023-01-30T10:20:22.983Z,99146.72
2023-01-30T10:23:34.661Z,99139.91
2023-01-30T10:26:25.775Z,99114.72
2023-01-30T10:29:21.949Z,99119.19
2023-01-30T10:32:12.146Z,99121.25
2023-01-30T10:35:04.797Z,99089.06
2023-01-30T10:38:31.678Z,99097.91
2023-01-30T10:41:31.256Z,99097.44
2023-01-30T10:44:22.842Z,99094.38
2023-01-30T10:47:46.363Z,99099.25
2023-01-30T10:50:50.528Z,99107.53
2023-01-30T10:53:51.916Z,99102.16
2023-01-30T10:56:51.023Z,99080.66
2023-01-30T11:00:05.264Z,99080.66
2023-01-30T11:03:14.183Z,99071.06
2023-01-30T11:06:16.879Z,99056.84
2023-01-30T11:09:04.243Z,99051.91
2023-01-30T11:11:53.456Z,99053.88
2023-01-30T11:14:55.468Z,99033.41
2023-01-30T11:17:43.616Z,99051.78
2023-01-30T11:20:30.780Z,99047.31
2023-01-30T11:23:26.726Z,99040.31
2023-01-30T11:26:46.706Z,99042.31
2023-01-30T11:29:37.616Z,99029.41
2023-01-30T11:32:29.698Z,99020.72
2023-01-30T11:35:54.812Z,99016.16
2023-01-30T11:39:22.031Z,99036.63
2023-01-30T11:42:10.830Z,99036.41
2023-01-30T11:45:17.261Z,99014.97
2023-01-30T11:48:31.690Z,99016.06
2023-01-30T11:51:24.060Z,99007.25
2023-01-30T11:54:18.866Z,98988.50
2023-01-30T11:57:11.963Z,98995.91
2023-01-30T12:00:01.250Z,98979.06
2023-01-30T12:02:50.047Z,98988.06
2023-01-30T12:05:42.939Z,98970.44
2023-01-30T12:08:42.140Z,98967.03
2023-01-30T12:11:45.005Z,98955.91
2023-01-30T12:14:45.883Z,98952.19
2023-01-30T12:17:37.744Z,98952.50
2023-01-30T12:21:01.297Z,98942.16
2023-01-30T12:24:03.222Z,98938.31
2023-01-30T12:27:04.813Z,98933.34
2023-01-30T12:30:02.792Z,98916.16
2023-01-30T12:32:49.836Z,98912.44
2023-01-30T12:35:49.251Z,98905.13
2023-01-30T12:38:54.963Z,98907.88
2023-01-30T12:41:48.121Z,98905.03
2023-01-30T12:44:56.171Z,98922.81
2023-01-30T12:47:55.010Z,98924.38
2023-01-30T12:50:50.990Z,98912.56
2023-01-30T12:54:09.854Z,98903.00
2023-01-30T12:57:24.819Z,98898.66
2023-01-30T13:00:38.159Z,98888.81
2023-01-30T13:03:55.559Z,98902.47
2023-01-30T13:07:28.654Z,98905.13
2023-01-30T13:10:19.118Z,98901.53
2023-01-30T13:13:42.463Z,98903.75
2023-01-30T13:16:58.105Z,98907.78
2023-01-30T13:20:11.084Z,98900.34
2023-01-30T13:23:20.630Z,98900.78
2023-01-30T13:26:24.671Z,98905.75
2023-01-30T13:29:40.780Z,98912.88
2023-01-30T13:32:38.968Z,98934.06
2023-01-30T13:35:37.105Z,98925.47
2023-01-30T13:38:28.935Z,98941.09
2023-01-30T13:41:18.886Z,98919.44
2023-01-30T13:44:21.575Z,98914.13
2023-01-30T13:47:24.743Z,98903.81
2023-01-30T13:50:49.314Z,98913.59
2023-01-30T13:53:50.055Z,98908.66
2023-01-30T13:56:54.308Z,98915.09
2023-01-30T14:00:04.903Z,98918.19
2023-01-30T14:03:24.494Z,98906.94
2023-01-30T14:06:29.661Z,98912.88
2023-01-30T14:09:21.548Z,98892.72
2023-01-30T14:12:18.498Z,98898.56
2023-01-30T14:15:14.909Z,98904.78
2023-01-30T14:18:08.023Z,98863.25
2023-01-30T14:21:14.634Z,98849.28
2023-01-30T14:24:03.734Z,98860.50
2023-01-30T14:26:50.827Z,98910.94
2023-01-30T14:29:38.050Z,98922.47
2023-01-30T14:32:48.084Z,98930.22
2023-01-30T14:35:35.291Z,98928.53
2023-01-30T14:38:22.683Z,98884.50
2023-01-30T14:41:27.747Z,98916.38
2023-01-30T14:45:03.647Z,98927.38
2023-01-30T14:48:22.734Z,98875.69
2023-01-30T14:51:16.057Z,98932.16
2023-01-30T14:54:13.336Z,98934.97
2023-01-30T14:57:05.857Z,98884.06
2023-01-30T15:00:14.815Z,98913.00
2023-01-30T15:03:09.601Z,98908.44
2023-01-30T15:06:00.153Z,98917.03
2023-01-30T15:08:47.917Z,98895.75
2023-01-30T15:11:36.425Z,98883.13
2023-01-30T15:14:32.257Z,98897.09
2023-01-30T15:17:31.440Z,98966.13
2023-01-30T15:20:54.609Z,98959.28
2023-01-30T15:23:41.641Z,98962.81
2023-01-30T15:26:37.736Z,98969.56
2023-01-30T15:29:56.216Z,98979.97
2023-01-30T15:32:44.787Z,98931.56
2023-01-30T15:35:31.896Z,98938.72
2023-01-30T15:38:30.979Z,98936.38
2023-01-30T15:41:18.156Z,98970.56
2023-01-30T15:44:14.346Z,98985.09
2023-01-30T15:47:19.841Z,98981.66
2023-01-30T15:50:10.774Z,98945.84
2023-01-30T15:52:59.050Z,98971.53
2023-01-30T15:55:47.185Z,98989.69
2023-01-30T15:58:41.413Z,99002.84
2023-01-30T16:01:29.367Z,99003.03
2023-01-30T16:04:29.732Z,98977.94
2023-01-30T16:07:27.256Z,98982.84
2023-01-30T16:10:17.346Z,99025.81
2023-01-30T16:13:04.792Z,99013.81
2023-01-30T16:16:02.412Z,99013.16
2023-01-30T16:18:53.607Z,99018.22
2023-01-30T16:21:41.397Z,99058.03
2023-01-30T16:24:32.911Z,99056.28
2023-01-30T16:27:41.196Z,99054.44
2023-01-30T16:30:30.197Z,99082.88
2023-01-30T16:33:18.436Z,99065.53
2023-01-30T16:36:36.043Z,99057.41
2023-01-30T16:39:37.882Z,99087.44
2023-01-30T16:42:30.568Z,99086.22
2023-01-30T16:46:02.135Z,99079.41
2023-01-30T16:48:50.248Z,99074.50
2023-01-30T16:51:38.531Z,99103.75
2023-01-30T16:54:30.050Z,99077.81
2023-01-30T16:57:36.500Z,99101.59
2023-01-30T17:00:31.756Z,99103.75
2023-01-30T17:03:26.930Z,99048.69
2023-01-30T17:06:31.853Z,99081.19
2023-01-30T17:09:42.918Z,99065.91
2023-01-30T17:12:31.353Z,99066.09
2023-01-30T17:15:18.935Z,99056.81
2023-01-30T17:18:09.745Z,99039.63
2023-01-30T17:20:57.266Z,99059.69
2023-01-30T17:23:49.235Z,99027.06
2023-01-30T17:26:40.735Z,99084.31
2023-01-30T17:29:42.701Z,99064.19
2023-01-30T17:32:30.779Z,99076.81
2023-01-30T17:35:18.621Z,99050.88
2023-01-30T17:38:06.441Z,99038.41
2023-01-30T17:40:54.050Z,99051.47
2023-01-30T17:43:41.517Z,99020.97
2023-01-30T17:46:54.441Z,99065.34
2023-01-30T17:49:42.495Z,99061.94
2023-01-30T17:52:30.317Z,99062.81
2023-01-30T17:55:18.754Z,99068.31
2023-01-30T17:58:06.557Z,99043.91
2023-01-30T18:00:54.000Z,99073.69
2023-01-30T18:03:43.254Z,99062.81
2023-01-30T18:06:34.384Z,99063.72
2023-01-30T18:09:24.504Z,99059.94
2023-01-30T18:12:12.549Z,99008.78
2023-01-30T18:15:01.594Z,99013.63
2023-01-30T18:17:50.410Z,99033.63
2023-01-30T18:20:38.235Z,99064.31
2023-01-30T18:23:26.211Z,99064.53
2023-01-30T18:26:14.202Z,99037.41
2023-01-30T18:29:02.245Z,99049.09
2023-01-30T18:31:52.990Z,99041.84
2023-01-30T18:34:44.257Z,99053.66
2023-01-30T18:37:34.544Z,99060.25
2023-01-30T18:40:22.108Z,99085.22
2023-01-30T18:43:11.691Z,99053.78
2023-01-30T18:46:07.986Z,99103.75
2023-01-30T18:48:57.109Z,99094.13
2023-01-30T18:51:45.231Z,99055.75
2023-01-30T18:54:33.436Z,99061.72
2023-01-30T18:57:20.967Z,99102.09
2023-01-30T19:00:09.678Z,99106.13
2023-01-30T19:02:57.816Z,99069.72
2023-01-30T19:05:45.517Z,99086.81
2023-01-30T19:08:34.764Z,99103.69
2023-01-30T19:11:41.990Z,99117.28
2023-01-30T19:14:29.867Z,99097.50
2023-01-30T19:17:17.624Z,99128.56
2023-01-30T19:20:11.270Z,99133.56
2023-01-30T19:23:00.851Z,99103.94
2023-01-30T19:25:56.097Z,99142.22
2023-01-30T19:28:44.953Z,99130.41
2023-01-30T19:31:35.208Z,99156.72
2023-01-30T19:34:23.310Z,99143.25
2023-01-30T19:37:10.758Z,99133.63
2023-01-30T19:39:59.873Z,99125.03
2023-01-30T19:42:54.567Z,99159.03
2023-01-30T19:45:44.915Z,99158.78
2023-01-30T19:48:34.514Z,99135.44
2023-01-30T19:51:30.888Z,99180.28
2023-01-30T19:54:19.517Z,99171.38
2023-01-30T19:57:10.050Z,99144.31
2023-01-30T19:59:58.420Z,99185.22
2023-01-30T20:02:48.219Z,99124.22
2023-01-30T20:05:36.348Z,99176.44
2023-01-30T20:08:32.328Z,99198.50
2023-01-30T20:11:23.696Z,99195.19
2023-01-30T20:14:14.222Z,99178.38
2023-01-30T20:17:02.141Z,99177.84
2023-01-30T20:19:51.068Z,99158.03
2023-01-30T20:22:39.230Z,99173.19
2023-01-30T20:25:26.556Z,99180.59
2023-01-30T20:28:14.002Z,99172.00
2023-01-30T20:31:12.124Z,99196.41
2023-01-30T20:34:06.716Z,99191.00
2023-01-30T20:36:54.935Z,99189.94
2023-01-30T20:39:43.095Z,99182.72
2023-01-30T20:42:31.113Z,99201.53
2023-01-30T20:45:20.272Z,99200.97
2023-01-30T20:48:11.467Z,99200.41
2023-01-30T20:51:15.277Z,99197.72
2023-01-30T20:54:06.200Z,99192.47
2023-01-30T20:56:54.772Z,99192.88
2023-01-30T20:59:42.699Z,99209.75
2023-01-30T21:02:30.258Z,99222.25
2023-01-30T21:05:23.320Z,99224.59
2023-01-30T21:08:12.625Z,99213.19
2023-01-30T21:11:05.543Z,99237.91
2023-01-30T21:13:52.893Z,99218.88
2023-01-30T21:16:41.309Z,99215.06
2023-01-30T21:19:29.268Z,99227.19
2023-01-30T21:22:16.981Z,99234.78
2023-01-30T21:25:05.860Z,99235.06
2023-01-30T21:27:54.599Z,99241.88
2023-01-30T21:30:43.100Z,99246.94
2023-01-30T21:33:30.709Z,99234.97
2023-01-30T21:36:17.973Z,99255.50
2023-01-30T21:39:24.063Z,99232.88
2023-01-30T21:42:29.842Z,99258.44
2023-01-30T21:45:17.786Z,99248.13
2023-01-30T21:48:06.077Z,99268.00
2023-01-30T21:50:54.391Z,99250.88
2023-01-30T21:53:41.602Z,99242.81
2023-01-30T21:56:28.807Z,99270.28
2023-01-30T21:59:16.039Z,99291.31
2023-01-30T22:02:03.195Z,99291.78
2023-01-30T22:04:50.303Z,99280.03
2023-01-30T22:07:37.650Z,99275.03
2023-01-30T22:10:25.890Z,99298.97
2023-01-30T22:13:13.743Z,99302.66
2023-01-30T22:16:03.341Z,99299.25
2023-01-30T22:18:58.824Z,99310.38
2023-01-30T22:21:45.856Z,99279.91
2023-01-30T22:24:34.034Z,99273.69
2023-01-30T22:27:21.097Z,99299.94
2023-01-30T22:30:08.868Z,99313.78
2023-01-30T22:32:55.941Z,99308.25
2023-01-30T22:35:49.732Z,99313.13
2023-01-30T22:38:37.145Z,99301.75
2023-01-30T22:41:26.910Z,99306.84
2023-01-30T22:44:14.020Z,99296.91
2023-01-30T22:47:01.085Z,99289.69
2023-01-30T22:49:48.256Z,99297.41
2023-01-30T22:52:35.787Z,99307.69
2023-01-30T22:55:23.222Z,99288.59
2023-01-30T22:58:10.275Z,99301.34
2023-01-30T23:01:05.792Z,99285.75
2023-01-30T23:03:58.510Z,99291.25
2023-01-30T23:06:46.301Z,99293.75
2023-01-30T23:09:33.412Z,99292.81
2023-01-30T23:12:39.090Z,99248.13
2023-01-30T23:15:26.144Z,99270.19
2023-01-30T23:18:32.881Z,99285.31
2023-01-30T23:21:20.189Z,99277.56
2023-01-30T23:24:16.059Z,99288.25
2023-01-30T23:27:03.354Z,99277.00
2023-01-30T23:29:50.449Z,99285.00
2023-01-30T23:32:38.099Z,99299.88
2023-01-30T23:35:25.245Z,99291.91
2023-01-30T23:38:22.111Z,99307.16
2023-01-30T23:41:14.989Z,99296.56
2023-01-30T23:44:02.440Z,99306.16
2023-01-30T23:46:49.591Z,99323.06
2023-01-30T23:49:36.621Z,99293.09
2023-01-30T23:52:23.726Z,99283.06
2023-01-30T23:55:10.823Z,99307.63
2023-01-30T23:57:58.841Z,99303.94
